createdAt,value
2022-11-16T00:01:34.255Z,75.16
2022-11-16T00:04:02.806Z,74.57
2022-11-16T00:06:29.795Z,75.92
2022-11-16T00:09:18.237Z,75.78
2022-11-16T00:11:45.679Z,75.45
2022-11-16T00:14:12.499Z,75.45
2022-11-16T00:16:39.587Z,75.59
2022-11-16T00:19:07.103Z,76.11
2022-11-16T00:21:34.123Z,76.31
2022-11-16T00:24:02.430Z,75.63
2022-11-16T00:26:29.278Z,76.14
2022-11-16T00:28:56.642Z,76.02
2022-11-16T00:31:24.905Z,76.22
2022-11-16T00:33:52.147Z,75.83
2022-11-16T00:36:18.902Z,76.04
2022-11-16T00:38:46.468Z,76.52
2022-11-16T00:41:13.208Z,76.47
2022-11-16T00:43:39.877Z,76.56
2022-11-16T00:46:07.383Z,76.24
2022-11-16T00:48:34.213Z,75.93
2022-11-16T00:51:01.186Z,75.82
2022-11-16T00:53:28.692Z,76.04
2022-11-16T00:55:55.400Z,76.20
2022-11-16T00:58:22.154Z,76.82
2022-11-16T01:00:50.000Z,76.93
2022-11-16T01:03:16.717Z,76.55
2022-11-16T01:05:43.728Z,76.70
2022-11-16T01:08:10.618Z,77.33
2022-11-16T01:10:39.907Z,77.17
2022-11-16T01:13:07.386Z,77.00
2022-11-16T01:15:34.660Z,77.65
2022-11-16T01:18:01.294Z,77.88
2022-11-16T01:20:29.711Z,77.71
2022-11-16T01:22:56.668Z,77.90
2022-11-16T01:25:23.339Z,77.69
2022-11-16T01:27:50.171Z,78.16
2022-11-16T01:30:17.252Z,77.71
2022-11-16T01:32:43.924Z,78.42
2022-11-16T01:35:16.047Z,78.35
2022-11-16T01:37:42.919Z,78.48
2022-11-16T01:40:11.089Z,78.94
2022-11-16T01:42:37.917Z,79.08
2022-11-16T01:45:24.729Z,79.42
2022-11-16T01:47:53.163Z,79.65
2022-11-16T01:50:19.985Z,80.09
2022-11-16T01:52:54.471Z,80.23
2022-11-16T01:55:23.263Z,79.78
2022-11-16T01:57:51.132Z,79.94
2022-11-16T02:00:18.730Z,80.28
2022-11-16T02:02:45.800Z,79.68
2022-11-16T02:05:15.861Z,80.59
2022-11-16T02:08:23.146Z,80.65
2022-11-16T02:11:13.960Z,79.98
2022-11-16T02:13:46.470Z,80.44
2022-11-16T02:16:41.007Z,80.85
2022-11-16T02:19:11.784Z,81.08
2022-11-16T02:22:00.948Z,81.38
2022-11-16T02:24:28.362Z,81.66
2022-11-16T02:27:17.924Z,81.61
2022-11-16T02:29:53.648Z,81.57
2022-11-16T02:32:29.642Z,81.79
2022-11-16T02:35:05.787Z,81.99
2022-11-16T02:37:37.176Z,81.85
2022-11-16T02:40:08.875Z,82.10
2022-11-16T02:42:41.477Z,82.74
2022-11-16T02:45:12.795Z,82.62
2022-11-16T02:47:42.122Z,82.62
2022-11-16T02:50:16.345Z,82.73
2022-11-16T02:52:42.987Z,83.06
2022-11-16T02:55:12.638Z,83.09
2022-11-16T02:57:54.119Z,82.86
2022-11-16T03:00:27.121Z,83.53
2022-11-16T03:03:11.583Z,83.52
2022-11-16T03:06:11.514Z,83.74
2022-11-16T03:08:42.830Z,83.70
2022-11-16T03:11:29.819Z,84.18
2022-11-16T03:14:04.131Z,83.85
2022-11-16T03:16:35.118Z,84.56
2022-11-16T03:19:08.264Z,84.39
2022-11-16T03:21:43.801Z,84.74
2022-11-16T03:24:10.681Z,84.85
2022-11-16T03:27:05.476Z,84.72
2022-11-16T03:29:39.989Z,84.83
2022-11-16T03:32:41.699Z,85.23
2022-11-16T03:35:18.590Z,84.88
2022-11-16T03:37:48.022Z,84.49
2022-11-16T03:40:17.160Z,84.66
2022-11-16T03:42:45.795Z,84.97
2022-11-16T03:45:14.107Z,84.40
2022-11-16T03:47:42.053Z,84.77
2022-11-16T03:50:09.940Z,84.92
2022-11-16T03:52:36.861Z,84.86
2022-11-16T03:55:04.650Z,84.65
2022-11-16T03:57:31.286Z,84.72
2022-11-16T03:59:57.867Z,84.93
2022-11-16T04:02:24.451Z,85.47
2022-11-16T04:05:09.917Z,85.49
2022-11-16T04:07:56.139Z,85.77
2022-11-16T04:10:41.085Z,85.54
2022-11-16T04:13:30.511Z,86.02
2022-11-16T04:16:15.677Z,86.00
2022-11-16T04:19:00.855Z,86.04
2022-11-16T04:22:00.680Z,86.30
2022-11-16T04:24:30.487Z,85.98
2022-11-16T04:27:19.351Z,86.52
2022-11-16T04:29:48.393Z,85.79
2022-11-16T04:32:44.980Z,85.79
2022-11-16T04:35:46.899Z,86.02
2022-11-16T04:38:15.119Z,85.81
2022-11-16T04:40:41.717Z,85.41
2022-11-16T04:43:08.643Z,85.50
2022-11-16T04:45:54.986Z,85.84
2022-11-16T04:48:21.983Z,85.58
2022-11-16T04:50:48.702Z,85.15
2022-11-16T04:53:16.005Z,86.04
2022-11-16T04:55:42.619Z,85.89
2022-11-16T04:58:10.887Z,85.52
2022-11-16T05:00:37.987Z,86.04
2022-11-16T05:03:05.370Z,85.46
2022-11-16T05:05:31.980Z,85.75
2022-11-16T05:07:59.413Z,85.15
2022-11-16T05:10:26.277Z,85.39
2022-11-16T05:12:52.881Z,85.37
2022-11-16T05:15:20.038Z,85.15
2022-11-16T05:17:47.397Z,84.90
2022-11-16T05:20:33.039Z,84.66
2022-11-16T05:22:59.701Z,84.88
2022-11-16T05:25:26.850Z,84.08
2022-11-16T05:27:55.056Z,84.40
2022-11-16T05:30:21.765Z,83.73
2022-11-16T05:32:48.384Z,83.84
2022-11-16T05:35:15.852Z,84.44
2022-11-16T05:37:42.456Z,83.92
2022-11-16T05:40:09.597Z,83.33
2022-11-16T05:42:40.004Z,82.69
2022-11-16T05:45:07.015Z,82.12
2022-11-16T05:47:33.609Z,82.43
2022-11-16T05:50:00.288Z,82.06
2022-11-16T05:52:26.847Z,82.42
2022-11-16T05:54:53.433Z,82.26
2022-11-16T05:57:20.828Z,82.59
2022-11-16T05:59:47.430Z,81.96
2022-11-16T06:02:14.595Z,82.13
2022-11-16T06:04:42.095Z,82.44
2022-11-16T06:07:08.731Z,81.78
2022-11-16T06:09:35.445Z,81.50
2022-11-16T06:12:02.070Z,80.98
2022-11-16T06:14:28.644Z,80.32
2022-11-16T06:16:55.227Z,79.64
2022-11-16T06:19:22.732Z,79.30
2022-11-16T06:21:49.364Z,78.30
2022-11-16T06:24:16.029Z,78.68
2022-11-16T06:26:42.731Z,77.69
2022-11-16T06:29:10.424Z,77.34
2022-11-16T06:31:37.035Z,77.92
2022-11-16T06:34:03.695Z,77.78
2022-11-16T06:36:30.336Z,78.48
2022-11-16T06:39:00.308Z,77.74
2022-11-16T06:41:27.901Z,77.44
2022-11-16T06:43:54.486Z,76.83
2022-11-16T06:46:21.293Z,77.08
2022-11-16T06:48:47.951Z,77.02
2022-11-16T06:51:14.567Z,76.88
2022-11-16T06:53:41.190Z,76.81
2022-11-16T06:56:08.144Z,75.80
2022-11-16T06:58:35.101Z,75.47
2022-11-16T07:01:09.936Z,74.98
2022-11-16T07:03:36.590Z,74.69
2022-11-16T07:06:12.475Z,74.97
2022-11-16T07:08:39.253Z,74.66
2022-11-16T07:11:07.555Z,74.18
2022-11-16T07:13:38.080Z,73.07
2022-11-16T07:16:06.972Z,72.42
2022-11-16T07:18:35.945Z,71.23
2022-11-16T07:21:11.470Z,70.80
2022-11-16T07:23:38.350Z,70.34
2022-11-16T07:26:07.576Z,70.42
2022-11-16T07:28:35.614Z,71.17
2022-11-16T07:31:08.478Z,71.09
2022-11-16T07:33:35.930Z,70.77
2022-11-16T07:36:07.781Z,70.68
2022-11-16T07:38:35.006Z,69.34
2022-11-16T07:41:03.348Z,68.64
2022-11-16T07:43:37.257Z,67.06
2022-11-16T07:46:44.714Z,66.66
2022-11-16T07:48:54.768Z,65.91
2022-11-16T07:51:21.323Z,65.25
2022-11-16T07:53:47.914Z,64.08
2022-11-16T07:56:14.541Z,62.58
2022-11-16T07:58:41.123Z,62.48
2022-11-16T08:01:13.415Z,62.44
2022-11-16T08:03:42.232Z,62.35
2022-11-16T08:06:13.188Z,62.66
2022-11-16T08:08:40.204Z,61.88
2022-11-16T08:11:10.716Z,61.61
2022-11-16T08:13:39.804Z,60.71
2022-11-16T08:16:11.015Z,59.72
2022-11-16T08:18:39.678Z,58.12
2022-11-16T08:21:08.094Z,58.66
2022-11-16T08:23:35.149Z,58.89
2022-11-16T08:26:04.354Z,58.30
2022-11-16T08:28:34.775Z,58.22
2022-11-16T08:31:11.586Z,57.40
2022-11-16T08:33:38.466Z,57.15
2022-11-16T08:36:12.569Z,55.35
2022-11-16T08:38:41.520Z,53.96
2022-11-16T08:41:08.160Z,53.23
2022-11-16T08:43:35.940Z,53.62
2022-11-16T08:46:03.379Z,53.70
2022-11-16T08:48:30.674Z,54.67
2022-11-16T08:51:17.341Z,55.81
2022-11-16T08:53:48.155Z,56.78
2022-11-16T08:56:17.361Z,56.93
2022-11-16T08:58:44.411Z,56.48
2022-11-16T09:01:15.649Z,55.89
2022-11-16T09:03:42.543Z,55.04
2022-11-16T09:06:10.413Z,54.26
2022-11-16T09:08:38.637Z,53.41
2022-11-16T09:11:10.055Z,53.81
2022-11-16T09:13:37.044Z,53.10
2022-11-16T09:16:04.689Z,52.61
2022-11-16T09:18:32.006Z,51.95
2022-11-16T09:20:58.973Z,52.60
2022-11-16T09:23:25.936Z,52.51
2022-11-16T09:25:56.190Z,52.03
2022-11-16T09:28:23.798Z,51.96
2022-11-16T09:30:51.365Z,51.31
2022-11-16T09:33:18.499Z,51.83
2022-11-16T09:35:45.292Z,53.06
2022-11-16T09:38:16.012Z,51.99
2022-11-16T09:40:48.435Z,52.96
2022-11-16T09:43:45.633Z,52.77
2022-11-16T09:46:29.546Z,53.38
2022-11-16T09:49:02.425Z,54.04
2022-11-16T09:51:33.885Z,53.20
2022-11-16T09:54:23.099Z,53.56
2022-11-16T09:56:54.662Z,53.81
2022-11-16T09:59:27.687Z,53.64
2022-11-16T10:01:59.570Z,53.27
2022-11-16T10:04:43.886Z,53.51
2022-11-16T10:07:20.260Z,53.44
2022-11-16T10:09:47.791Z,53.81
2022-11-16T10:12:40.206Z,53.03
2022-11-16T10:15:18.808Z,52.89
2022-11-16T10:18:20.707Z,53.34
2022-11-16T10:21:07.358Z,52.70
2022-11-16T10:23:50.007Z,52.42
2022-11-16T10:26:19.207Z,52.97
2022-11-16T10:29:10.341Z,54.08
2022-11-16T10:31:51.597Z,53.88
2022-11-16T10:34:37.776Z,55.40
2022-11-16T10:37:08.519Z,56.09
2022-11-16T10:39:40.407Z,55.96
2022-11-16T10:42:13.454Z,55.90
2022-11-16T10:44:45.641Z,55.53
2022-11-16T10:47:19.008Z,55.36
2022-11-16T10:49:59.574Z,55.15
2022-11-16T10:52:26.558Z,54.38
2022-11-16T10:54:53.475Z,54.41
2022-11-16T10:57:20.616Z,53.70
2022-11-16T10:59:50.154Z,52.96
2022-11-16T11:02:37.406Z,52.91
2022-11-16T11:05:07.039Z,52.43
2022-11-16T11:07:40.049Z,53.05
2022-11-16T11:10:30.431Z,53.64
2022-11-16T11:13:04.586Z,54.72
2022-11-16T11:15:31.333Z,55.22
2022-11-16T11:18:22.238Z,54.70
2022-11-16T11:20:51.157Z,54.92
2022-11-16T11:23:25.527Z,54.61
2022-11-16T11:25:55.268Z,53.38
2022-11-16T11:28:32.041Z,51.14
2022-11-16T11:31:11.714Z,50.80
2022-11-16T11:33:48.405Z,51.18
2022-11-16T11:36:35.336Z,52.35
2022-11-16T11:39:07.687Z,52.52
2022-11-16T11:41:39.925Z,52.63
2022-11-16T11:44:15.779Z,53.23
2022-11-16T11:50:08.406Z,53.36
2022-11-16T11:52:44.631Z,50.78
2022-11-16T11:55:15.646Z,48.38
2022-11-16T11:57:46.282Z,44.66
2022-11-16T12:00:14.977Z,42.70
2022-11-16T12:03:19.925Z,42.24
2022-11-16T12:05:58.010Z,41.29
2022-11-16T12:08:35.412Z,40.76
2022-11-16T12:11:08.104Z,40.77
2022-11-16T12:14:14.787Z,40.89
2022-11-16T12:16:53.250Z,40.69
2022-11-16T12:20:00.818Z,41.69
2022-11-16T12:22:45.293Z,41.27
2022-11-16T12:25:25.709Z,42.12
2022-11-16T12:28:25.798Z,42.86
2022-11-16T12:31:17.185Z,44.12
2022-11-16T12:33:55.893Z,45.68
2022-11-16T12:36:39.882Z,47.57
2022-11-16T12:39:12.580Z,49.66
2022-11-16T12:41:48.725Z,49.74
2022-11-16T12:44:27.409Z,50.76
2022-11-16T12:47:31.453Z,52.10
2022-11-16T12:50:08.106Z,52.56
2022-11-16T12:53:02.493Z,53.33
2022-11-16T12:55:49.589Z,54.65
2022-11-16T12:58:19.052Z,55.68
2022-11-16T13:00:50.727Z,56.63
2022-11-16T13:03:29.526Z,56.88
2022-11-16T13:06:03.589Z,57.43
2022-11-16T13:08:52.791Z,57.63
2022-11-16T13:11:42.492Z,57.88
2022-11-16T13:14:21.018Z,58.22
2022-11-16T13:16:49.278Z,58.19
2022-11-16T13:19:18.101Z,58.32
2022-11-16T13:22:10.723Z,58.39
2022-11-16T13:24:49.288Z,59.19
2022-11-16T13:27:49.812Z,59.39
2022-11-16T13:30:22.545Z,59.24
2022-11-16T13:33:11.252Z,59.93
2022-11-16T13:35:38.952Z,59.57
2022-11-16T13:38:13.096Z,59.94
2022-11-16T13:40:40.943Z,59.66
2022-11-16T13:43:16.551Z,59.78
2022-11-16T13:45:43.083Z,59.80
2022-11-16T13:48:20.578Z,60.13
2022-11-16T13:50:51.052Z,60.58
2022-11-16T13:54:44.434Z,60.62
2022-11-16T13:57:21.217Z,60.76
2022-11-16T14:00:03.685Z,61.15
2022-11-16T14:02:35.065Z,60.63
2022-11-16T14:05:13.726Z,60.68
2022-11-16T14:07:47.480Z,61.13
2022-11-16T14:10:35.883Z,60.96
2022-11-16T14:13:04.522Z,61.23
2022-11-16T14:15:47.625Z,61.32
2022-11-16T14:18:33.420Z,61.39
2022-11-16T14:24:32.534Z,60.74
2022-11-16T14:27:06.453Z,60.95
2022-11-16T14:30:02.722Z,61.26
2022-11-16T14:32:42.411Z,60.73
2022-11-16T14:35:29.633Z,61.24
2022-11-16T14:42:24.519Z,61.14
2022-11-16T14:45:09.766Z,61.72
2022-11-16T14:47:41.753Z,61.83
2022-11-16T14:50:47.909Z,61.75
2022-11-16T14:53:20.448Z,61.62
2022-11-16T14:55:47.130Z,61.81
2022-11-16T14:58:34.707Z,62.16
2022-11-16T15:01:04.337Z,62.59
2022-11-16T15:03:43.870Z,62.78
2022-11-16T15:06:10.624Z,63.45
2022-11-16T15:08:43.972Z,64.01
2022-11-16T15:11:22.489Z,63.97
2022-11-16T15:14:00.904Z,64.21
2022-11-16T15:16:27.529Z,64.49
2022-11-16T15:19:03.754Z,64.24
2022-11-16T15:21:30.383Z,63.95
2022-11-16T15:26:43.980Z,64.31
2022-11-16T15:29:17.230Z,65.44
2022-11-16T15:31:52.995Z,65.51
2022-11-16T15:34:20.225Z,66.84
2022-11-16T15:36:47.680Z,66.96
2022-11-16T15:39:28.601Z,67.28
2022-11-16T15:42:00.387Z,67.28
2022-11-16T15:44:36.942Z,68.47
2022-11-16T15:47:04.038Z,68.38
2022-11-16T15:49:38.184Z,69.16
2022-11-16T15:52:06.127Z,68.56
2022-11-16T15:54:52.900Z,69.62
2022-11-16T15:57:20.290Z,70.12
2022-11-16T15:59:55.544Z,70.04
2022-11-16T16:02:25.010Z,69.99
2022-11-16T16:04:51.869Z,70.04
2022-11-16T16:07:44.365Z,70.26
2022-11-16T16:10:32.608Z,70.34
2022-11-16T16:13:01.730Z,70.55
2022-11-16T16:15:31.270Z,70.54
2022-11-16T16:17:59.031Z,70.94
2022-11-16T16:20:29.700Z,70.90
2022-11-16T16:23:12.985Z,71.56
2022-11-16T16:25:44.750Z,71.00
2022-11-16T16:28:14.441Z,71.13
2022-11-16T16:30:41.155Z,71.36
2022-11-16T16:33:21.078Z,71.95
2022-11-16T16:35:49.896Z,72.08
2022-11-16T16:38:16.624Z,72.44
2022-11-16T16:40:43.280Z,71.92
2022-11-16T16:43:11.232Z,72.33
2022-11-16T16:45:43.599Z,72.36
2022-11-16T16:48:12.750Z,72.31
2022-11-16T16:50:44.951Z,72.37
2022-11-16T16:53:13.348Z,72.23
2022-11-16T16:55:51.786Z,72.82
2022-11-16T16:58:20.644Z,72.81
2022-11-16T17:00:56.923Z,72.41
2022-11-16T17:03:42.307Z,72.95
2022-11-16T17:06:08.931Z,73.40
2022-11-16T17:08:37.012Z,73.61
2022-11-16T17:11:07.158Z,73.17
2022-11-16T17:13:34.095Z,73.35
2022-11-16T17:16:07.158Z,74.00
2022-11-16T17:18:36.326Z,74.06
2022-11-16T17:21:07.744Z,74.18
2022-11-16T17:23:35.365Z,74.46
2022-11-16T17:26:09.797Z,74.56
2022-11-16T17:28:40.407Z,73.88
2022-11-16T17:31:09.211Z,74.18
2022-11-16T17:33:38.182Z,73.94
2022-11-16T17:36:06.054Z,73.50
2022-11-16T17:38:43.541Z,72.92
2022-11-16T17:41:15.891Z,73.35
2022-11-16T17:43:46.423Z,72.66
2022-11-16T17:46:18.090Z,72.65
2022-11-16T17:48:47.323Z,72.78
2022-11-16T17:51:16.699Z,72.70
2022-11-16T17:53:46.457Z,73.01
2022-11-16T17:56:14.942Z,73.62
2022-11-16T17:58:41.971Z,73.64
2022-11-16T18:01:22.608Z,72.86
2022-11-16T18:04:09.456Z,73.51
2022-11-16T18:06:36.258Z,73.25
2022-11-16T18:09:04.831Z,73.31
2022-11-16T18:11:31.465Z,72.94
2022-11-16T18:14:06.397Z,72.11
2022-11-16T18:16:33.872Z,72.38
2022-11-16T18:19:04.942Z,72.47
2022-11-16T18:22:08.732Z,72.86
2022-11-16T18:24:33.631Z,73.26
2022-11-16T18:27:00.293Z,72.90
2022-11-16T18:29:32.248Z,73.05
2022-11-16T18:32:00.107Z,73.97
2022-11-16T18:34:26.799Z,74.07
2022-11-16T18:36:53.563Z,73.67
2022-11-16T18:39:20.143Z,74.09
2022-11-16T18:41:51.801Z,73.94
2022-11-16T18:44:21.352Z,73.27
2022-11-16T18:46:47.932Z,73.51
2022-11-16T18:49:17.067Z,72.61
2022-11-16T18:51:43.715Z,72.76
2022-11-16T18:54:13.582Z,73.10
2022-11-16T18:59:35.647Z,72.31
2022-11-16T19:02:10.646Z,72.37
2022-11-16T19:04:40.304Z,71.99
2022-11-16T19:07:07.838Z,72.03
2022-11-16T19:09:35.350Z,72.53
2022-11-16T19:12:04.775Z,72.02
2022-11-16T19:14:34.316Z,72.03
2022-11-16T19:17:01.838Z,72.02
2022-11-16T19:19:29.868Z,72.54
2022-11-16T19:21:57.089Z,72.02
2022-11-16T19:24:25.355Z,71.97
2022-11-16T19:26:51.990Z,71.83
2022-11-16T19:29:19.430Z,71.85
2022-11-16T19:32:10.405Z,72.37
2022-11-16T19:34:37.062Z,71.90
2022-11-16T19:43:59.902Z,72.13
2022-11-16T19:46:28.726Z,71.30
2022-11-16T19:48:56.421Z,71.37
2022-11-16T19:51:25.484Z,72.21
2022-11-16T19:53:52.461Z,72.97
2022-11-16T19:56:20.481Z,73.13
2022-11-16T19:58:48.066Z,73.43
2022-11-16T20:01:18.966Z,73.17
2022-11-16T20:03:47.463Z,73.54
2022-11-16T20:06:20.854Z,73.39
2022-11-16T20:08:56.277Z,73.40
2022-11-16T20:11:26.475Z,73.34
2022-11-16T20:13:55.110Z,73.92
2022-11-16T20:16:26.083Z,73.67
2022-11-16T20:18:53.439Z,73.92
2022-11-16T20:21:33.148Z,73.74
2022-11-16T20:24:06.332Z,73.56
2022-11-16T20:26:34.778Z,73.03
2022-11-16T20:29:02.511Z,73.00
2022-11-16T20:31:31.099Z,72.55
2022-11-16T20:34:01.918Z,73.57
2022-11-16T20:36:30.689Z,73.11
2022-11-16T20:38:59.228Z,73.44
2022-11-16T20:41:28.376Z,73.15
2022-11-16T20:43:56.827Z,72.82
2022-11-16T20:46:26.749Z,72.90
2022-11-16T20:48:54.608Z,72.71
2022-11-16T20:51:21.304Z,73.19
2022-11-16T20:53:50.094Z,73.33
2022-11-16T20:56:19.223Z,72.95
2022-11-16T20:58:46.749Z,73.11
2022-11-16T21:01:19.520Z,73.11
2022-11-16T21:03:48.990Z,73.28
2022-11-16T21:06:15.890Z,73.35
2022-11-16T21:08:42.562Z,73.02
2022-11-16T21:11:14.539Z,73.59
2022-11-16T21:13:59.824Z,73.36
2022-11-16T21:16:26.744Z,73.83
2022-11-16T21:18:54.652Z,74.12
2022-11-16T21:21:21.683Z,73.85
2022-11-16T21:23:55.114Z,73.66
2022-11-16T21:26:29.745Z,74.09
2022-11-16T21:28:58.567Z,73.60
2022-11-16T21:31:33.712Z,74.26
2022-11-16T21:34:01.172Z,73.85
2022-11-16T21:36:30.498Z,74.21
2022-11-16T21:38:58.225Z,74.48
2022-11-16T21:41:25.799Z,74.63
2022-11-16T21:43:52.473Z,74.66
2022-11-16T21:46:26.927Z,75.15
2022-11-16T21:48:55.472Z,74.79
2022-11-16T21:51:26.926Z,74.95
2022-11-16T21:53:54.391Z,75.34
2022-11-16T21:56:25.918Z,74.89
2022-11-16T21:58:53.436Z,75.42
2022-11-16T22:01:22.671Z,75.37
2022-11-16T22:04:09.638Z,75.13
2022-11-16T22:06:55.079Z,75.11
2022-11-16T22:09:21.888Z,75.01
2022-11-16T22:11:48.513Z,75.07
2022-11-16T22:14:15.668Z,74.39
2022-11-16T22:16:42.337Z,74.26
2022-11-16T22:19:08.986Z,74.39
2022-11-16T22:21:36.667Z,74.66
2022-11-16T22:24:03.370Z,74.22
2022-11-16T22:26:30.015Z,74.81
2022-11-16T22:28:58.144Z,74.69
2022-11-16T22:31:25.162Z,74.19
2022-11-16T22:33:53.644Z,74.23
2022-11-16T22:36:23.563Z,74.20
2022-11-16T22:38:50.269Z,74.78
2022-11-16T22:41:16.881Z,74.17
2022-11-16T22:43:43.469Z,74.18
2022-11-16T22:46:10.983Z,74.49
2022-11-16T22:48:42.586Z,74.31
2022-11-16T22:51:18.483Z,74.77
2022-11-16T22:53:45.240Z,74.96
2022-11-16T22:56:12.544Z,74.48
2022-11-16T22:58:40.668Z,74.88
2022-11-16T23:01:08.618Z,75.27
2022-11-16T23:03:38.082Z,75.16
2022-11-16T23:06:07.721Z,75.33
2022-11-16T23:08:35.252Z,75.93
2022-11-16T23:11:23.454Z,75.84
2022-11-16T23:14:10.430Z,75.86
2022-11-16T23:16:38.356Z,75.86
2022-11-16T23:19:26.371Z,76.01
2022-11-16T23:22:11.736Z,75.54
2022-11-16T23:24:57.311Z,75.88
2022-11-16T23:27:32.767Z,75.16
2022-11-16T23:30:10.755Z,75.06
2022-11-16T23:32:38.997Z,74.85
2022-11-16T23:35:06.082Z,75.01
2022-11-16T23:37:32.672Z,75.53
2022-11-16T23:40:00.530Z,74.92
2022-11-16T23:42:45.498Z,75.33
2022-11-16T23:45:12.125Z,75.13
2022-11-16T23:47:38.679Z,75.62
2022-11-16T23:50:05.685Z,75.79
2022-11-16T23:52:32.837Z,75.56
2022-11-16T23:55:01.601Z,75.56
2022-11-16T23:57:30.492Z,75.76
2022-11-16T23:59:57.807Z,75.75
